createdAt,value
2023-06-07T00:02:29.518Z,14.54
2023-06-07T00:07:40.072Z,14.51
2023-06-07T00:12:44.836Z,14.58
2023-06-07T00:17:48.875Z,14.54
2023-06-07T00:22:56.435Z,14.55
2023-06-07T00:28:00.828Z,14.65
2023-06-07T00:33:04.038Z,14.68
2023-06-07T00:38:07.522Z,14.75
2023-06-07T00:43:11.614Z,14.80
2023-06-07T00:48:15.516Z,14.84
2023-06-07T00:53:18.998Z,14.85
2023-06-07T00:58:24.603Z,14.85
2023-06-07T01:03:27.673Z,14.72
2023-06-07T01:08:33.080Z,14.69
2023-06-07T01:13:37.633Z,14.72
2023-06-07T01:18:43.667Z,14.69
2023-06-07T01:23:48.733Z,14.76
2023-06-07T01:28:51.709Z,14.72
2023-06-07T01:33:55.385Z,14.76
2023-06-07T01:39:01.820Z,14.78
2023-06-07T01:44:04.940Z,14.75
2023-06-07T01:49:08.271Z,14.73
2023-06-07T01:54:13.173Z,14.73
2023-06-07T01:59:24.334Z,14.74
2023-06-07T02:04:33.019Z,14.67
2023-06-07T02:09:41.261Z,14.74
2023-06-07T02:14:44.688Z,14.72
2023-06-07T02:19:48.560Z,14.79
2023-06-07T02:24:53.031Z,14.82
2023-06-07T02:29:55.832Z,14.79
2023-06-07T02:35:01.006Z,14.78
2023-06-07T02:40:07.255Z,14.71
2023-06-07T02:45:12.704Z,14.73
2023-06-07T02:50:15.766Z,14.83
2023-06-07T02:55:20.978Z,14.78
2023-06-07T03:00:25.000Z,14.85
2023-06-07T03:05:34.749Z,14.85
2023-06-07T03:10:44.911Z,14.91
2023-06-07T03:15:52.732Z,14.92
2023-06-07T03:20:55.778Z,14.90
2023-06-07T03:26:01.021Z,14.90
2023-06-07T03:31:07.978Z,14.89
2023-06-07T03:36:27.139Z,14.94
2023-06-07T03:41:32.237Z,14.98
2023-06-07T03:46:38.816Z,15.00
2023-06-07T03:51:44.175Z,14.99
2023-06-07T03:56:49.374Z,15.02
2023-06-07T04:01:52.413Z,15.09
2023-06-07T04:06:56.039Z,15.16
2023-06-07T04:12:02.814Z,15.23
2023-06-07T04:17:06.865Z,15.23
2023-06-07T04:22:11.035Z,15.35
2023-06-07T04:27:19.408Z,15.45
2023-06-07T04:32:23.148Z,15.52
2023-06-07T04:37:32.269Z,15.60
2023-06-07T04:42:38.636Z,15.67
2023-06-07T04:47:46.893Z,15.79
2023-06-07T04:53:01.963Z,15.89
2023-06-07T04:58:07.188Z,15.88
2023-06-07T05:03:22.854Z,16.04
2023-06-07T05:08:28.683Z,16.00
2023-06-07T05:13:33.799Z,16.13
2023-06-07T05:18:40.698Z,16.35
2023-06-07T05:23:44.278Z,16.49
2023-06-07T05:28:48.854Z,16.73
2023-06-07T05:33:51.896Z,16.66
2023-06-07T05:38:57.195Z,16.84
2023-06-07T05:44:02.088Z,17.04
2023-06-07T05:49:05.998Z,17.24
2023-06-07T05:54:09.590Z,17.63
2023-06-07T05:59:13.875Z,17.87
2023-06-07T06:04:17.527Z,18.39
2023-06-07T06:09:20.979Z,18.49
2023-06-07T06:14:26.326Z,18.53
2023-06-07T06:19:29.253Z,18.92
2023-06-07T06:24:32.048Z,19.20
2023-06-07T06:29:36.230Z,19.23
2023-06-07T06:34:39.010Z,19.52
2023-06-07T06:39:42.085Z,19.50
2023-06-07T06:44:46.394Z,19.59
2023-06-07T06:49:51.204Z,19.59
2023-06-07T06:54:54.106Z,19.76
2023-06-07T06:59:58.356Z,19.43
2023-06-07T07:05:01.327Z,19.73
2023-06-07T07:10:05.545Z,19.85
2023-06-07T07:15:10.614Z,20.20
2023-06-07T07:20:16.730Z,20.28
2023-06-07T07:25:19.579Z,20.59
2023-06-07T07:30:24.181Z,21.07
2023-06-07T07:35:27.044Z,22.02
2023-06-07T07:40:30.255Z,22.03
2023-06-07T07:45:34.458Z,22.26
2023-06-07T07:50:39.302Z,22.34
2023-06-07T07:55:42.386Z,22.34
2023-06-07T08:00:47.023Z,22.78
2023-06-07T08:05:49.916Z,22.16
2023-06-07T08:10:53.398Z,22.80
2023-06-07T08:15:57.845Z,23.08
2023-06-07T08:21:01.007Z,23.54
2023-06-07T08:26:04.286Z,23.44
2023-06-07T08:31:08.581Z,23.29
2023-06-07T08:36:11.732Z,23.14
2023-06-07T08:41:14.718Z,23.37
2023-06-07T08:46:19.861Z,23.44
2023-06-07T08:51:24.580Z,23.72
2023-06-07T08:56:30.258Z,23.64
2023-06-07T09:01:36.833Z,24.32
2023-06-07T09:06:41.718Z,24.69
2023-06-07T09:11:44.720Z,23.91
2023-06-07T09:16:56.403Z,24.16
2023-06-07T09:21:59.479Z,25.47
2023-06-07T09:27:04.361Z,25.49
2023-06-07T09:32:20.323Z,25.68
2023-06-07T09:37:23.227Z,25.53
2023-06-07T09:42:26.492Z,26.10
2023-06-07T09:47:31.482Z,26.12
2023-06-07T09:52:34.694Z,25.58
2023-06-07T09:57:39.785Z,25.88
2023-06-07T10:02:45.033Z,25.03
2023-06-07T10:07:49.957Z,24.97
2023-06-07T10:12:53.543Z,24.82
2023-06-07T10:18:02.499Z,24.60
2023-06-07T10:23:07.872Z,25.74
2023-06-07T10:28:16.577Z,24.59
2023-06-07T10:33:21.694Z,24.80
2023-06-07T10:38:25.517Z,24.43
2023-06-07T10:43:30.507Z,24.21
2023-06-07T10:48:36.893Z,25.06
2023-06-07T10:53:57.743Z,25.83
2023-06-07T10:59:22.621Z,25.08
2023-06-07T11:04:59.658Z,24.98
2023-06-07T11:10:34.647Z,24.46
2023-06-07T11:15:38.549Z,25.71
2023-06-07T11:20:53.478Z,25.28
2023-06-07T11:26:00.583Z,26.63
2023-06-07T11:31:08.007Z,26.87
2023-06-07T11:36:14.186Z,25.93
2023-06-07T11:41:17.318Z,25.31
2023-06-07T11:46:21.246Z,25.67
2023-06-07T11:51:26.277Z,25.87
2023-06-07T11:56:31.641Z,25.64
2023-06-07T12:01:34.892Z,25.99
2023-06-07T12:06:39.345Z,25.88
2023-06-07T12:11:42.222Z,25.49
2023-06-07T12:16:45.272Z,25.37
2023-06-07T12:21:49.887Z,25.96
2023-06-07T12:26:57.759Z,26.53
2023-06-07T12:32:02.543Z,26.72
2023-06-07T12:37:08.373Z,26.15
2023-06-07T12:42:11.313Z,27.38
2023-06-07T12:47:14.182Z,29.22
2023-06-07T12:52:18.516Z,27.97
2023-06-07T12:57:21.350Z,29.79
2023-06-07T13:02:24.345Z,31.16
2023-06-07T13:07:28.524Z,33.28
2023-06-07T13:12:32.035Z,32.62
2023-06-07T13:17:35.814Z,33.93
2023-06-07T13:22:40.216Z,30.30
2023-06-07T13:27:43.723Z,31.45
2023-06-07T13:32:47.768Z,32.65
2023-06-07T13:37:52.166Z,30.14
2023-06-07T13:42:55.062Z,30.93
2023-06-07T13:47:58.090Z,32.34
2023-06-07T13:53:02.724Z,30.61
2023-06-07T13:58:05.716Z,31.01
2023-06-07T14:03:08.858Z,31.10
2023-06-07T14:08:13.378Z,33.81
2023-06-07T14:13:16.549Z,33.76
2023-06-07T14:18:19.430Z,35.20
2023-06-07T14:23:23.572Z,32.01
2023-06-07T14:28:26.844Z,31.18
2023-06-07T14:33:30.048Z,28.35
2023-06-07T14:38:34.392Z,28.47
2023-06-07T14:43:37.186Z,27.51
2023-06-07T14:48:40.567Z,26.42
2023-06-07T14:53:44.930Z,25.67
2023-06-07T14:58:48.884Z,25.99
2023-06-07T15:03:51.733Z,25.62
2023-06-07T15:08:56.310Z,27.73
2023-06-07T15:13:59.236Z,30.23
2023-06-07T15:19:02.116Z,32.74
2023-06-07T15:24:07.127Z,34.31
2023-06-07T15:29:10.174Z,37.73
2023-06-07T15:34:13.116Z,35.48
2023-06-07T15:39:17.300Z,34.66
2023-06-07T15:44:20.755Z,35.64
2023-06-07T15:49:24.087Z,35.61
2023-06-07T15:54:28.602Z,34.20
2023-06-07T15:59:32.091Z,34.30
2023-06-07T16:04:34.999Z,29.64
2023-06-07T16:09:39.104Z,28.90
2023-06-07T16:14:42.577Z,34.53
2023-06-07T16:19:45.849Z,39.27
2023-06-07T16:24:50.075Z,39.04
2023-06-07T16:29:53.023Z,38.01
2023-06-07T16:34:55.841Z,35.65
2023-06-07T16:40:00.265Z,36.75
2023-06-07T16:45:03.212Z,36.73
2023-06-07T16:50:07.595Z,32.97
2023-06-07T16:55:13.423Z,33.66
2023-06-07T17:00:18.263Z,35.88
2023-06-07T17:05:21.252Z,35.78
2023-06-07T17:10:31.062Z,38.18
2023-06-07T17:15:34.782Z,35.39
2023-06-07T17:20:37.907Z,34.55
2023-06-07T17:25:42.116Z,29.77
2023-06-07T17:30:44.910Z,34.12
2023-06-07T17:35:47.833Z,32.86
2023-06-07T17:40:52.035Z,31.80
2023-06-07T17:45:54.855Z,30.49
2023-06-07T17:50:57.864Z,28.31
2023-06-07T17:56:02.132Z,27.94
2023-06-07T18:01:04.991Z,27.15
2023-06-07T18:06:08.314Z,26.46
2023-06-07T18:11:13.158Z,25.49
2023-06-07T18:16:16.337Z,24.14
2023-06-07T18:21:19.521Z,24.27
2023-06-07T18:26:23.881Z,24.21
2023-06-07T18:31:26.733Z,25.33
2023-06-07T18:36:29.638Z,25.25
2023-06-07T18:41:35.209Z,26.79
2023-06-07T18:46:38.920Z,24.77
2023-06-07T18:51:41.753Z,24.63
2023-06-07T18:56:46.016Z,24.17
2023-06-07T19:01:52.679Z,23.84
2023-06-07T19:06:55.644Z,23.42
2023-06-07T19:12:00.503Z,23.03
2023-06-07T19:17:04.304Z,22.75
2023-06-07T19:22:08.384Z,22.37
2023-06-07T19:27:13.591Z,22.06
2023-06-07T19:32:16.727Z,21.81
2023-06-07T19:37:20.661Z,21.45
2023-06-07T19:42:26.133Z,21.13
2023-06-07T19:47:29.502Z,20.80
2023-06-07T19:52:32.534Z,20.54
2023-06-07T19:57:36.898Z,20.34
2023-06-07T20:02:39.878Z,20.05
2023-06-07T20:07:42.824Z,19.85
2023-06-07T20:12:47.151Z,19.60
2023-06-07T20:17:49.999Z,19.44
2023-06-07T20:22:52.941Z,19.42
2023-06-07T20:27:57.309Z,19.22
2023-06-07T20:33:00.336Z,19.00
2023-06-07T20:38:03.227Z,18.95
2023-06-07T20:43:07.475Z,18.77
2023-06-07T20:48:10.907Z,18.77
2023-06-07T20:53:13.961Z,18.69
2023-06-07T20:58:19.843Z,18.57
2023-06-07T21:03:24.788Z,18.33
2023-06-07T21:08:27.658Z,18.15
2023-06-07T21:13:32.473Z,18.03
2023-06-07T21:18:36.019Z,17.89
2023-06-07T21:23:38.881Z,17.70
2023-06-07T21:28:43.107Z,17.55
2023-06-07T21:33:58.856Z,17.48
2023-06-07T21:39:01.815Z,17.35
2023-06-07T21:44:06.248Z,17.19
2023-06-07T21:49:09.137Z,17.09
2023-06-07T21:54:12.174Z,16.94
2023-06-07T21:59:16.445Z,16.80
2023-06-07T22:04:19.458Z,16.76
2023-06-07T22:09:23.291Z,16.75
2023-06-07T22:14:29.178Z,16.68
2023-06-07T22:19:33.045Z,16.56
2023-06-07T22:24:35.848Z,16.43
2023-06-07T22:29:41.108Z,16.39
2023-06-07T22:34:45.792Z,16.28
2023-06-07T22:39:48.966Z,16.27
2023-06-07T22:44:53.490Z,16.20
2023-06-07T22:49:57.807Z,16.12
2023-06-07T22:55:01.046Z,16.08
2023-06-07T23:00:10.613Z,16.03
2023-06-07T23:05:14.620Z,16.00
2023-06-07T23:10:18.978Z,16.01
2023-06-07T23:15:24.680Z,16.06
2023-06-07T23:20:32.761Z,16.03
2023-06-07T23:25:35.756Z,16.02
2023-06-07T23:30:40.845Z,15.98
2023-06-07T23:35:43.795Z,16.03
2023-06-07T23:40:46.567Z,16.12
2023-06-07T23:45:51.113Z,16.14
2023-06-07T23:50:54.252Z,16.21
2023-06-07T23:55:57.159Z,16.24
